createdAt,value
2018-08-20T00:01:32.256Z,100245.98
2018-08-20T00:04:04.456Z,100243.58
2018-08-20T00:06:45.749Z,100231.88
2018-08-20T00:09:15.881Z,100236.82
2018-08-20T00:11:46.421Z,100236.77
2018-08-20T00:14:18.141Z,100229.64
2018-08-20T00:16:48.154Z,100233.25
2018-08-20T00:19:18.094Z,100227.03
2018-08-20T00:21:47.943Z,100217.64
2018-08-20T00:24:17.766Z,100218.77
2018-08-20T00:26:47.576Z,100219.58
2018-08-20T00:29:17.535Z,100222.83
2018-08-20T00:31:47.629Z,100220.34
2018-08-20T00:34:17.380Z,100223.28
2018-08-20T00:36:48.481Z,100220.34
2018-08-20T00:39:18.328Z,100228.89
2018-08-20T00:41:48.392Z,100224.33
2018-08-20T00:44:18.803Z,100222.89
2018-08-20T00:46:48.541Z,100224.07
2018-08-20T00:49:18.359Z,100220.72
2018-08-20T00:51:48.186Z,100221.47
2018-08-20T00:54:18.481Z,100220.63
2018-08-20T00:56:48.437Z,100216.52
2018-08-20T00:59:18.252Z,100212.38
2018-08-20T01:01:49.961Z,100209.67
2018-08-20T01:04:20.541Z,100202.03
2018-08-20T01:06:51.728Z,100206.74
2018-08-20T01:09:22.405Z,100194.23
2018-08-20T01:11:53.869Z,100197.15
2018-08-20T01:14:24.418Z,100195.73
2018-08-20T01:16:55.711Z,100193.19
2018-08-20T01:19:26.392Z,100191.99
2018-08-20T01:22:02.431Z,100198.34
2018-08-20T01:24:32.298Z,100188.25
2018-08-20T01:27:02.575Z,100191.39
2018-08-20T01:29:32.388Z,100191.69
2018-08-20T01:32:02.122Z,100187.19
2018-08-20T01:34:32.631Z,100191.98
2018-08-20T01:37:03.485Z,100193.33
2018-08-20T01:39:34.380Z,100189.28
2018-08-20T01:42:05.674Z,100188.45
2018-08-20T01:44:36.656Z,100192.64
2018-08-20T01:47:07.444Z,100192.13
2018-08-20T01:49:38.954Z,100188.59
2018-08-20T01:52:09.966Z,100184.55
2018-08-20T01:54:40.520Z,100182.09
2018-08-20T01:57:11.378Z,100191.23
2018-08-20T01:59:42.697Z,100179.59
2018-08-20T02:02:13.804Z,100181.48
2018-08-20T02:04:44.453Z,100179.84
2018-08-20T02:07:15.957Z,100180.55
2018-08-20T02:09:46.506Z,100183.99
2018-08-20T02:12:17.401Z,100182.64
2018-08-20T02:14:48.652Z,100173.71
2018-08-20T02:17:19.337Z,100173.35
2018-08-20T02:19:51.201Z,100174.69
2018-08-20T02:22:21.704Z,100175.73
2018-08-20T02:24:52.501Z,100176.84
2018-08-20T02:27:23.613Z,100172.80
2018-08-20T02:29:54.482Z,100183.89
2018-08-20T02:32:25.365Z,100177.83
2018-08-20T02:34:56.885Z,100171.39
2018-08-20T02:37:32.237Z,100176.98
2018-08-20T02:40:02.401Z,100175.87
2018-08-20T02:42:32.176Z,100172.78
2018-08-20T02:45:02.673Z,100167.09
2018-08-20T02:47:32.521Z,100180.03
2018-08-20T02:50:02.824Z,100175.92
2018-08-20T02:52:33.383Z,100169.38
2018-08-20T02:55:12.222Z,100167.43
2018-08-20T02:57:42.181Z,100170.13
2018-08-20T03:00:14.304Z,100170.67
2018-08-20T03:02:44.423Z,100172.02
2018-08-20T03:05:14.304Z,100164.13
2018-08-20T03:07:44.233Z,100162.78
2018-08-20T03:10:14.650Z,100157.09
2018-08-20T03:12:44.434Z,100163.33
2018-08-20T03:15:14.250Z,100168.17
2018-08-20T03:17:44.123Z,100160.03
2018-08-20T03:20:14.580Z,100161.88
2018-08-20T03:22:45.742Z,100158.87
2018-08-20T03:25:16.337Z,100153.73
2018-08-20T03:27:47.718Z,100158.87
2018-08-20T03:30:18.305Z,100152.28
2018-08-20T03:32:49.843Z,100157.38
2018-08-20T03:35:20.397Z,100156.56
2018-08-20T03:37:51.733Z,100154.07
2018-08-20T03:40:22.553Z,100153.70
2018-08-20T03:42:53.416Z,100162.00
2018-08-20T03:45:24.701Z,100160.05
2018-08-20T03:47:55.665Z,100160.79
2018-08-20T03:50:26.364Z,100158.84
2018-08-20T03:52:57.909Z,100147.98
2018-08-20T03:55:28.842Z,100148.94
2018-08-20T03:57:59.665Z,100149.67
2018-08-20T04:00:30.332Z,100150.95
2018-08-20T04:03:01.733Z,100147.49
2018-08-20T04:05:32.354Z,100148.80
2018-08-20T04:08:04.144Z,100141.83
2018-08-20T04:10:34.594Z,100134.80
2018-08-20T04:13:05.584Z,100140.81
2018-08-20T04:15:36.416Z,100139.20
2018-08-20T04:18:07.676Z,100137.78
2018-08-20T04:20:38.407Z,100136.56
2018-08-20T04:23:09.819Z,100136.33
2018-08-20T04:25:40.383Z,100134.60
2018-08-20T04:28:11.818Z,100140.98
2018-08-20T04:30:42.445Z,100135.37
2018-08-20T04:33:13.616Z,100139.88
2018-08-20T04:35:44.336Z,100138.20
2018-08-20T04:38:15.853Z,100140.91
2018-08-20T04:40:46.436Z,100138.52
2018-08-20T04:43:17.757Z,100139.13
2018-08-20T04:45:48.449Z,100145.55
2018-08-20T04:48:19.715Z,100139.73
2018-08-20T04:50:50.457Z,100141.25
2018-08-20T04:53:21.862Z,100140.38
2018-08-20T04:55:52.386Z,100138.91
2018-08-20T04:58:23.826Z,100136.61
2018-08-20T05:00:54.374Z,100138.03
2018-08-20T05:03:25.758Z,100140.28
2018-08-20T05:05:56.329Z,100143.15
2018-08-20T05:08:27.975Z,100133.08
2018-08-20T05:10:58.506Z,100140.52
2018-08-20T05:13:29.491Z,100148.47
2018-08-20T05:16:00.720Z,100144.73
2018-08-20T05:18:31.412Z,100141.59
2018-08-20T05:21:02.868Z,100140.95
2018-08-20T05:23:33.831Z,100150.01
2018-08-20T05:26:04.461Z,100146.57
2018-08-20T05:28:35.393Z,100151.61
2018-08-20T05:31:05.855Z,100152.82
2018-08-20T05:33:36.465Z,100149.89
2018-08-20T05:36:07.644Z,100156.05
2018-08-20T05:38:38.797Z,100153.00
2018-08-20T05:41:09.340Z,100149.95
2018-08-20T05:43:40.913Z,100153.55
2018-08-20T05:46:11.497Z,100160.45
2018-08-20T05:48:42.757Z,100172.20
2018-08-20T05:51:13.356Z,100165.86
2018-08-20T05:53:45.034Z,100171.41
2018-08-20T05:56:15.475Z,100167.25
2018-08-20T05:58:46.753Z,100169.05
2018-08-20T06:01:18.161Z,100175.50
2018-08-20T06:03:48.903Z,100173.55
2018-08-20T06:06:19.406Z,100183.35
2018-08-20T06:08:51.002Z,100181.94
2018-08-20T06:11:21.533Z,100189.44
2018-08-20T06:13:52.628Z,100180.73
2018-08-20T06:16:23.457Z,100186.66
2018-08-20T06:18:54.927Z,100180.73
2018-08-20T06:21:25.433Z,100182.81
2018-08-20T06:23:56.896Z,100188.50
2018-08-20T06:26:27.813Z,100190.20
2018-08-20T06:28:58.624Z,100188.66
2018-08-20T06:31:29.561Z,100196.48
2018-08-20T06:34:00.857Z,100198.84
2018-08-20T06:36:31.492Z,100192.79
2018-08-20T06:39:02.972Z,100194.51
2018-08-20T06:41:34.665Z,100191.28
2018-08-20T06:44:04.850Z,100196.84
2018-08-20T06:46:35.602Z,100186.08
2018-08-20T06:49:07.445Z,100189.63
2018-08-20T06:51:37.831Z,100199.69
2018-08-20T06:54:09.434Z,100196.90
2018-08-20T06:56:40.017Z,100190.63
2018-08-20T06:59:13.036Z,100201.97
2018-08-20T07:02:46.242Z,100193.52
2018-08-20T07:05:16.205Z,100194.08
2018-08-20T07:07:46.066Z,100190.01
2018-08-20T07:10:15.963Z,100194.26
2018-08-20T07:12:46.155Z,100190.12
2018-08-20T07:15:16.678Z,100198.14
2018-08-20T07:17:47.334Z,100198.31
2018-08-20T07:20:17.462Z,100193.39
2018-08-20T07:22:47.351Z,100194.41
2018-08-20T07:25:17.308Z,100196.42
2018-08-20T07:39:12.256Z,100202.77
2018-08-20T07:41:42.124Z,100203.99
2018-08-20T07:44:11.828Z,100196.30
2018-08-20T07:46:41.681Z,100199.95
2018-08-20T07:49:15.923Z,100206.67
2018-08-20T07:51:45.811Z,100210.67
2018-08-20T07:54:16.147Z,100201.89
2018-08-20T07:56:46.456Z,100206.59
2018-08-20T07:59:16.992Z,100214.86
2018-08-20T08:01:52.922Z,100211.78
2018-08-20T08:04:22.835Z,100213.23
2018-08-20T08:06:52.750Z,100201.03
2018-08-20T08:09:22.869Z,100206.64
2018-08-20T08:11:52.916Z,100208.88
2018-08-20T08:14:23.148Z,100210.00
2018-08-20T08:16:52.953Z,100204.93
2018-08-20T08:19:22.765Z,100203.88
2018-08-20T08:21:53.015Z,100205.06
2018-08-20T08:24:22.873Z,100206.22
2018-08-20T08:26:52.793Z,100209.25
2018-08-20T08:29:22.820Z,100210.47
2018-08-20T08:31:52.870Z,100208.36
2018-08-20T08:34:22.808Z,100200.47
2018-08-20T08:36:52.829Z,100204.36
2018-08-20T08:39:22.691Z,100193.51
2018-08-20T08:41:52.967Z,100202.24
2018-08-20T08:44:22.874Z,100198.98
2018-08-20T08:46:52.958Z,100197.65
2018-08-20T08:49:22.750Z,100203.40
2018-08-20T08:51:52.809Z,100197.66
2018-08-20T08:54:22.846Z,100198.23
2018-08-20T08:56:52.686Z,100192.77
2018-08-20T08:59:22.838Z,100194.92
2018-08-20T09:01:52.797Z,100197.13
2018-08-20T09:04:22.809Z,100194.11
2018-08-20T09:06:52.919Z,100194.92
2018-08-20T09:09:22.678Z,100198.47
2018-08-20T09:11:52.849Z,100199.84
2018-08-20T09:14:23.299Z,100197.36
2018-08-20T09:16:53.061Z,100193.55
2018-08-20T09:19:22.901Z,100204.44
2018-08-20T09:21:52.684Z,100200.05
2018-08-20T09:24:22.848Z,100200.60
2018-08-20T09:26:52.765Z,100213.19
2018-08-20T09:29:22.766Z,100198.62
2018-08-20T09:31:52.722Z,100195.58
2018-08-20T09:34:22.709Z,100195.80
2018-08-20T09:36:52.894Z,100202.08
2018-08-20T09:39:22.710Z,100201.20
2018-08-20T09:41:52.841Z,100205.51
2018-08-20T09:44:22.729Z,100205.57
2018-08-20T09:46:52.746Z,100210.21
2018-08-20T09:49:22.802Z,100202.30
2018-08-20T09:51:52.660Z,100201.97
2018-08-20T09:54:22.720Z,100201.94
2018-08-20T09:56:52.818Z,100198.86
2018-08-20T09:59:22.713Z,100199.33
2018-08-20T10:01:52.778Z,100195.75
2018-08-20T10:04:22.729Z,100199.28
2018-08-20T10:06:52.744Z,100203.63
2018-08-20T10:09:22.758Z,100205.83
2018-08-20T10:11:52.849Z,100205.75
2018-08-20T10:14:22.647Z,100202.97
2018-08-20T10:16:52.745Z,100200.76
2018-08-20T10:19:22.823Z,100198.14
2018-08-20T10:21:53.151Z,100195.03
2018-08-20T10:24:22.973Z,100192.66
2018-08-20T10:26:52.773Z,100194.22
2018-08-20T10:29:22.659Z,100207.14
2018-08-20T10:31:52.797Z,100188.38
2018-08-20T10:34:22.633Z,100194.33
2018-08-20T10:36:53.042Z,100203.50
2018-08-20T10:39:22.812Z,100195.39
2018-08-20T10:41:52.849Z,100193.34
2018-08-20T10:44:22.803Z,100198.73
2018-08-20T10:46:52.681Z,100192.69
2018-08-20T10:49:22.534Z,100193.98
2018-08-20T10:51:52.406Z,100193.45
2018-08-20T10:54:22.253Z,100191.50
2018-08-20T10:56:52.093Z,100188.42
2018-08-20T10:59:21.820Z,100187.66
2018-08-20T11:01:51.694Z,100185.55
2018-08-20T11:04:21.747Z,100179.50
2018-08-20T11:06:51.716Z,100177.74
2018-08-20T11:09:23.094Z,100173.34
2018-08-20T11:11:53.032Z,100170.46
2018-08-20T11:14:23.109Z,100167.37
2018-08-20T11:16:52.841Z,100170.62
2018-08-20T11:19:22.765Z,100156.81
2018-08-20T11:21:52.684Z,100160.19
2018-08-20T11:24:22.633Z,100162.13
2018-08-20T11:26:53.180Z,100158.81
2018-08-20T11:29:23.106Z,100154.65
2018-08-20T11:31:52.929Z,100151.80
2018-08-20T11:34:22.738Z,100154.84
2018-08-20T11:36:52.646Z,100153.91
2018-08-20T11:39:22.751Z,100141.19
2018-08-20T11:41:53.158Z,100140.77
2018-08-20T11:44:22.985Z,100140.88
2018-08-20T11:46:52.798Z,100143.47
2018-08-20T11:49:22.706Z,100143.35
2018-08-20T11:51:52.711Z,100145.23
2018-08-20T11:54:22.682Z,100131.98
2018-08-20T11:56:52.696Z,100133.62
2018-08-20T11:59:22.717Z,100132.13
2018-08-20T12:01:52.613Z,100128.50
2018-08-20T12:04:24.982Z,100119.42
2018-08-20T12:06:54.767Z,100117.11
2018-08-20T12:09:24.814Z,100113.94
2018-08-20T12:11:55.992Z,100120.11
2018-08-20T12:14:25.946Z,100118.67
2018-08-20T12:16:55.993Z,100113.45
2018-08-20T12:19:25.732Z,100108.03
2018-08-20T12:21:55.706Z,100105.83
2018-08-20T12:24:25.817Z,100108.30
2018-08-20T12:26:55.697Z,100106.56
2018-08-20T12:29:25.751Z,100105.11
2018-08-20T12:31:55.509Z,100101.04
2018-08-20T12:34:25.615Z,100100.97
2018-08-20T12:36:55.773Z,100097.21
2018-08-20T12:39:25.620Z,100090.71
2018-08-20T12:41:55.705Z,100085.96
2018-08-20T12:44:25.688Z,100090.31
2018-08-20T12:46:55.739Z,100088.77
2018-08-20T12:49:25.820Z,100076.98
2018-08-20T12:51:55.983Z,100080.20
2018-08-20T12:54:26.249Z,100082.09
2018-08-20T12:56:56.275Z,100076.91
2018-08-20T12:59:26.041Z,100077.35
2018-08-20T13:01:56.560Z,100073.53
2018-08-20T13:04:26.346Z,100084.94
2018-08-20T13:06:56.147Z,100077.05
2018-08-20T13:09:26.415Z,100083.91
2018-08-20T13:11:56.241Z,100086.56
2018-08-20T13:14:26.227Z,100081.52
2018-08-20T13:16:56.100Z,100078.17
2018-08-20T13:19:26.772Z,100076.16
2018-08-20T13:21:56.868Z,100075.78
2018-08-20T13:24:26.744Z,100070.14
2018-08-20T13:26:56.625Z,100074.64
2018-08-20T13:29:26.395Z,100073.41
2018-08-20T13:31:58.204Z,100066.84
2018-08-20T13:34:28.253Z,100070.83
2018-08-20T13:36:58.893Z,100068.63
2018-08-20T13:39:29.711Z,100062.05
2018-08-20T13:42:00.478Z,100066.32
2018-08-20T13:44:31.519Z,100071.38
2018-08-20T13:47:02.484Z,100062.20
2018-08-20T13:49:33.789Z,100067.36
2018-08-20T13:52:04.934Z,100061.16
2018-08-20T13:54:36.000Z,100063.05
2018-08-20T13:57:06.700Z,100057.09
2018-08-20T13:59:37.561Z,100047.64
2018-08-20T14:02:08.765Z,100042.80
2018-08-20T14:04:39.875Z,100053.83
2018-08-20T14:07:10.621Z,100051.46
2018-08-20T14:09:41.757Z,100043.69
2018-08-20T14:12:12.460Z,100027.46
2018-08-20T14:14:44.082Z,100045.67
2018-08-20T14:17:20.721Z,100041.09
2018-08-20T14:19:50.517Z,100041.84
2018-08-20T14:22:20.254Z,100039.95
2018-08-20T14:24:50.540Z,100030.95
2018-08-20T14:27:20.356Z,100038.55
2018-08-20T14:29:50.195Z,100041.02
2018-08-20T14:32:20.712Z,100029.34
2018-08-20T14:34:51.490Z,100028.09
2018-08-20T14:37:22.672Z,100025.83
2018-08-20T14:39:53.420Z,100024.82
2018-08-20T14:42:25.038Z,100025.02
2018-08-20T14:44:55.684Z,100029.19
2018-08-20T14:47:26.489Z,100021.40
2018-08-20T14:49:57.707Z,100020.77
2018-08-20T14:52:28.957Z,100024.40
2018-08-20T14:55:00.787Z,100026.83
2018-08-20T14:57:30.588Z,100024.66
2018-08-20T15:00:01.356Z,100021.81
2018-08-20T15:02:32.910Z,100025.66
2018-08-20T15:05:03.669Z,100022.57
2018-08-20T15:07:36.021Z,100028.83
2018-08-20T15:10:06.390Z,100028.89
2018-08-20T15:12:36.272Z,100039.89
2018-08-20T15:15:08.235Z,100035.13
2018-08-20T15:17:38.249Z,100035.61
2018-08-20T15:20:09.779Z,100034.17
2018-08-20T15:22:39.886Z,100032.50
2018-08-20T15:25:10.849Z,100032.01
2018-08-20T15:27:41.636Z,100036.91
2018-08-20T15:30:12.405Z,100040.64
2018-08-20T15:32:43.781Z,100040.16
2018-08-20T15:35:14.630Z,100045.34
2018-08-20T15:37:45.585Z,100044.95
2018-08-20T15:40:16.345Z,100038.11
2018-08-20T15:42:47.783Z,100041.91
2018-08-20T15:45:18.563Z,100041.59
2018-08-20T15:47:49.480Z,100038.56
2018-08-20T15:50:21.184Z,100027.48
2018-08-20T15:52:51.837Z,100025.34
2018-08-20T15:55:22.665Z,100027.89
2018-08-20T15:57:53.504Z,100026.36
2018-08-20T16:00:25.106Z,100024.56
2018-08-20T16:02:55.634Z,100021.50
2018-08-20T16:05:26.448Z,100028.59
2018-08-20T16:07:57.813Z,100027.94
2018-08-20T16:10:28.590Z,100024.50
2018-08-20T16:12:59.550Z,100027.01
2018-08-20T16:15:30.560Z,100028.64
2018-08-20T16:18:01.541Z,100029.08
2018-08-20T16:20:32.361Z,100031.56
2018-08-20T16:23:09.741Z,100022.70
2018-08-20T16:25:39.469Z,100022.08
2018-08-20T16:28:09.444Z,100027.37
2018-08-20T16:30:39.255Z,100032.93
2018-08-20T16:33:09.493Z,100034.02
2018-08-20T16:35:39.369Z,100041.80
2018-08-20T16:38:09.745Z,100037.99
2018-08-20T16:40:40.585Z,100044.88
2018-08-20T16:43:11.558Z,100045.64
2018-08-20T16:45:42.449Z,100056.08
2018-08-20T16:48:13.977Z,100053.50
2018-08-20T16:50:44.829Z,100054.55
2018-08-20T16:53:15.919Z,100055.17
2018-08-20T16:55:46.872Z,100055.67
2018-08-20T16:58:17.621Z,100057.51
2018-08-20T17:00:48.465Z,100056.90
2018-08-20T17:03:19.835Z,100065.46
2018-08-20T17:05:51.689Z,100067.97
2018-08-20T17:08:26.229Z,100060.94
2018-08-20T17:10:56.172Z,100065.80
2018-08-20T17:13:26.435Z,100069.64
2018-08-20T17:15:56.400Z,100071.02
2018-08-20T17:18:26.306Z,100070.25
2018-08-20T17:20:57.034Z,100073.25
2018-08-20T17:23:28.223Z,100086.49
2018-08-20T17:26:06.695Z,100085.28
2018-08-20T17:28:36.530Z,100094.91
2018-08-20T17:31:08.796Z,100094.41
2018-08-20T17:33:38.705Z,100099.86
2018-08-20T17:36:09.829Z,100113.55
2018-08-20T17:38:39.654Z,100114.11
2018-08-20T17:41:10.325Z,100120.66
2018-08-20T17:43:40.142Z,100122.80
2018-08-20T17:46:10.571Z,100123.06
2018-08-20T17:48:41.948Z,100136.33
2018-08-20T17:51:13.017Z,100141.67
2018-08-20T17:54:00.016Z,100140.80
2018-08-20T17:56:30.881Z,100147.76
2018-08-20T17:59:05.881Z,100159.73
2018-08-20T18:01:37.164Z,100164.47
2018-08-20T18:04:07.270Z,100172.45
2018-08-20T18:06:46.959Z,100174.14
2018-08-20T18:09:16.863Z,100179.78
2018-08-20T18:11:51.468Z,100178.30
2018-08-20T18:14:22.861Z,100200.34
2018-08-20T18:16:52.913Z,100199.80
2018-08-20T18:19:22.836Z,100201.66
2018-08-20T18:21:52.861Z,100209.64
2018-08-20T18:24:23.222Z,100214.58
2018-08-20T18:26:56.312Z,100221.78
2018-08-20T18:29:26.065Z,100232.22
2018-08-20T18:31:58.792Z,100224.98
2018-08-20T18:34:28.717Z,100232.39
2018-08-20T18:36:59.206Z,100237.02
2018-08-20T18:39:28.930Z,100239.65
2018-08-20T18:42:04.932Z,100238.02
2018-08-20T18:44:35.345Z,100239.31
2018-08-20T18:47:05.867Z,100249.11
2018-08-20T18:49:39.366Z,100262.53
2018-08-20T18:52:11.214Z,100263.78
2018-08-20T18:54:56.848Z,100262.88
2018-08-20T18:57:30.261Z,100269.99
2018-08-20T19:00:01.305Z,100278.11
2018-08-20T19:02:41.965Z,100279.76
2018-08-20T19:05:13.192Z,100279.78
2018-08-20T19:07:43.902Z,100283.09
2018-08-20T19:10:23.297Z,100289.25
2018-08-20T19:12:53.149Z,100281.78
2018-08-20T19:15:33.613Z,100290.27
2018-08-20T19:18:04.209Z,100286.48
2018-08-20T19:20:34.108Z,100289.82
2018-08-20T19:23:03.935Z,100290.70
2018-08-20T19:25:34.063Z,100288.33
2018-08-20T19:28:35.297Z,100291.83
2018-08-20T19:31:06.852Z,100295.48
2018-08-20T19:33:37.882Z,100288.33
2018-08-20T19:36:08.671Z,100299.97
2018-08-20T19:38:39.277Z,100287.77
2018-08-20T19:41:14.245Z,100299.48
2018-08-20T19:43:51.657Z,100289.15
2018-08-20T19:46:30.381Z,100288.47
2018-08-20T19:49:06.166Z,100284.80
2018-08-20T19:51:37.695Z,100290.52
2018-08-20T19:54:09.045Z,100292.19
2018-08-20T19:56:40.185Z,100295.25
2018-08-20T19:59:10.942Z,100296.92
2018-08-20T20:01:41.109Z,100307.27
2018-08-20T20:04:16.032Z,100307.84
2018-08-20T20:06:46.091Z,100306.48
2018-08-20T20:09:16.176Z,100305.41
2018-08-20T20:11:51.580Z,100305.41
2018-08-20T20:14:21.982Z,100308.64
2018-08-20T20:16:55.697Z,100307.29
2018-08-20T20:19:25.793Z,100302.93
2018-08-20T20:21:55.698Z,100307.55
2018-08-20T20:24:25.825Z,100311.05
2018-08-20T20:26:57.136Z,100311.54
2018-08-20T20:29:27.500Z,100311.48
2018-08-20T20:32:02.570Z,100317.95
2018-08-20T20:34:32.782Z,100311.59
2018-08-20T20:37:02.872Z,100314.56
2018-08-20T20:39:33.049Z,100322.71
2018-08-20T20:42:04.162Z,100318.64
2018-08-20T20:44:34.125Z,100322.94
2018-08-20T20:47:04.551Z,100321.55
2018-08-20T20:49:34.450Z,100326.92
2018-08-20T20:52:04.662Z,100326.83
2018-08-20T20:54:35.916Z,100314.72
2018-08-20T20:57:06.248Z,100327.97
2018-08-20T20:59:36.624Z,100334.69
2018-08-20T21:02:07.589Z,100331.36
2018-08-20T21:04:38.489Z,100333.39
2018-08-20T21:07:08.518Z,100341.50
2018-08-20T21:09:43.657Z,100344.41
2018-08-20T21:12:13.633Z,100341.11
2018-08-20T21:14:43.859Z,100342.17
2018-08-20T21:17:14.566Z,100344.30
2018-08-20T21:19:45.352Z,100348.86
2018-08-20T21:22:17.348Z,100346.84
2018-08-20T21:24:47.536Z,100351.11
2018-08-20T21:27:22.598Z,100361.63
2018-08-20T21:29:54.022Z,100360.97
2018-08-20T21:32:24.165Z,100357.09
2018-08-20T21:34:54.068Z,100365.70
2018-08-20T21:37:34.698Z,100369.66
2018-08-20T21:40:07.958Z,100377.97
2018-08-20T21:42:43.832Z,100371.08
2018-08-20T21:45:14.354Z,100369.62
2018-08-20T21:47:44.806Z,100377.97
2018-08-20T21:50:53.563Z,100374.67
2018-08-20T21:53:28.082Z,100385.14
2018-08-20T21:55:58.117Z,100385.03
2018-08-20T21:58:28.008Z,100387.03
2018-08-20T22:00:58.241Z,100388.20
2018-08-20T22:03:28.479Z,100395.69
2018-08-20T22:05:58.328Z,100396.45
2018-08-20T22:08:29.973Z,100389.14
2018-08-20T22:11:00.233Z,100399.92
2018-08-20T22:13:30.172Z,100401.62
2018-08-20T22:16:15.357Z,100404.52
2018-08-20T22:18:46.324Z,100403.92
2018-08-20T22:21:17.444Z,100400.08
2018-08-20T22:23:47.824Z,100400.36
2018-08-20T22:26:20.538Z,100400.84
2018-08-20T22:28:52.712Z,100402.98
2018-08-20T22:31:22.841Z,100406.22
2018-08-20T22:33:58.854Z,100407.84
2018-08-20T22:36:30.460Z,100411.69
2018-08-20T22:39:01.752Z,100412.54
2018-08-20T22:41:32.614Z,100415.40
2018-08-20T22:44:04.309Z,100409.00
2018-08-20T22:46:34.901Z,100418.91
2018-08-20T22:49:05.053Z,100420.86
2018-08-20T22:51:35.116Z,100417.55
2018-08-20T22:54:05.282Z,100419.66
2018-08-20T22:56:36.423Z,100418.23
2018-08-20T22:59:10.852Z,100417.09
2018-08-20T23:01:41.507Z,100417.78
2018-08-20T23:04:11.854Z,100420.53
2018-08-20T23:06:41.891Z,100420.23
2018-08-20T23:09:25.928Z,100426.42
2018-08-20T23:11:56.336Z,100426.91
2018-08-20T23:14:26.745Z,100432.30
2018-08-20T23:16:56.676Z,100428.89
2018-08-20T23:19:27.632Z,100424.03
2018-08-20T23:21:57.724Z,100432.64
2018-08-20T23:24:27.715Z,100426.73
2018-08-20T23:26:57.839Z,100425.08
2018-08-20T23:29:27.650Z,100420.72
2018-08-20T23:31:57.804Z,100426.87
2018-08-20T23:34:27.665Z,100427.30
2018-08-20T23:36:57.732Z,100426.40
2018-08-20T23:39:27.873Z,100431.94
2018-08-20T23:41:57.769Z,100433.31
2018-08-20T23:44:27.720Z,100435.34
2018-08-20T23:46:57.702Z,100433.69
2018-08-20T23:49:28.123Z,100431.42
2018-08-20T23:51:57.936Z,100433.95
2018-08-20T23:54:27.689Z,100437.42
2018-08-20T23:56:57.746Z,100440.17
2018-08-20T23:59:27.829Z,100440.27
